Terminal Aerodrome Forecast
Issued by NWS

Home | Current Version | Previous Version | Text Only | Print | Product List | Glossary On
Versions: 1 2 3 4 5 6 7 8 9 10 11 12 13 14 15 16 17 18
000
FTUS46 KEKA 050121 AAB
TAFCEC
TAF AMD
KCEC 050121Z 0501/0524 34012G20KT 6SM -RA SCT015 BKN035 OVC060
     FM050330 33009KT P6SM SCT035 BKN050
     FM050500 36004KT P6SM BKN050
     FM051200 03004KT P6SM FEW025 BKN050=

USA.gov is the U.S. government's official web portal to all federal, state and local government web resources and services.